sensor_id;sensor_type;location;lat;lon;timestamp;P1;durP1;ratioP1;P2;durP2;ratioP2
6105;SDS011;3083;51.508;7.966;2023-03-12T00:01:11;13.03;;;6.17;;
6105;SDS011;3083;51.508;7.966;2023-03-12T00:03:39;15.03;;;6.80;;
6105;SDS011;3083;51.508;7.966;2023-03-12T00:06:07;12.77;;;6.40;;
6105;SDS011;3083;51.508;7.966;2023-03-12T00:08:34;14.50;;;6.97;;
6105;SDS011;3083;51.508;7.966;2023-03-12T00:11:04;21.20;;;7.57;;
6105;SDS011;3083;51.508;7.966;2023-03-12T00:13:32;14.13;;;7.20;;
6105;SDS011;3083;51.508;7.966;2023-03-12T00:16:02;16.77;;;6.80;;
6105;SDS011;3083;51.508;7.966;2023-03-12T00:18:30;14.70;;;7.13;;
6105;SDS011;3083;51.508;7.966;2023-03-12T00:20:57;14.63;;;7.27;;
6105;SDS011;3083;51.508;7.966;2023-03-12T00:23:25;15.77;;;6.60;;
6105;SDS011;3083;51.508;7.966;2023-03-12T00:25:52;14.00;;;6.60;;
6105;SDS011;3083;51.508;7.966;2023-03-12T00:28:19;14.10;;;6.50;;
6105;SDS011;3083;51.508;7.966;2023-03-12T00:30:46;11.67;;;5.33;;
6105;SDS011;3083;51.508;7.966;2023-03-12T00:33:13;9.40;;;6.17;;
6105;SDS011;3083;51.508;7.966;2023-03-12T00:35:40;14.03;;;7.40;;
6105;SDS011;3083;51.508;7.966;2023-03-12T00:38:07;18.20;;;7.13;;
6105;SDS011;3083;51.508;7.966;2023-03-12T00:40:35;18.93;;;6.80;;
6105;SDS011;3083;51.508;7.966;2023-03-12T00:43:03;13.47;;;6.50;;
6105;SDS011;3083;51.508;7.966;2023-03-12T00:45:30;15.50;;;5.87;;
6105;SDS011;3083;51.508;7.966;2023-03-12T00:47:57;11.40;;;6.63;;
6105;SDS011;3083;51.508;7.966;2023-03-12T00:50:24;13.30;;;5.57;;
6105;SDS011;3083;51.508;7.966;2023-03-12T00:52:51;14.60;;;5.97;;
6105;SDS011;3083;51.508;7.966;2023-03-12T00:55:18;11.90;;;4.90;;
6105;SDS011;3083;51.508;7.966;2023-03-12T00:57:46;9.70;;;5.10;;
6105;SDS011;3083;51.508;7.966;2023-03-12T01:00:13;8.40;;;4.50;;
6105;SDS011;3083;51.508;7.966;2023-03-12T01:02:41;10.00;;;4.40;;
6105;SDS011;3083;51.508;7.966;2023-03-12T01:05:10;8.53;;;4.87;;
6105;SDS011;3083;51.508;7.966;2023-03-12T01:07:38;11.03;;;5.20;;
6105;SDS011;3083;51.508;7.966;2023-03-12T01:10:05;12.13;;;4.87;;
6105;SDS011;3083;51.508;7.966;2023-03-12T01:12:33;9.60;;;4.90;;
6105;SDS011;3083;51.508;7.966;2023-03-12T01:15:02;10.10;;;5.07;;
6105;SDS011;3083;51.508;7.966;2023-03-12T01:17:30;12.03;;;4.67;;
6105;SDS011;3083;51.508;7.966;2023-03-12T01:19:57;9.57;;;4.47;;
6105;SDS011;3083;51.508;7.966;2023-03-12T01:22:24;9.70;;;4.40;;
6105;SDS011;3083;51.508;7.966;2023-03-12T01:24:51;9.30;;;4.57;;
6105;SDS011;3083;51.508;7.966;2023-03-12T01:27:17;9.77;;;4.30;;
6105;SDS011;3083;51.508;7.966;2023-03-12T01:29:44;12.00;;;5.40;;
6105;SDS011;3083;51.508;7.966;2023-03-12T01:32:13;12.17;;;4.80;;
6105;SDS011;3083;51.508;7.966;2023-03-12T01:34:41;9.63;;;4.70;;
6105;SDS011;3083;51.508;7.966;2023-03-12T01:37:08;11.60;;;4.40;;
6105;SDS011;3083;51.508;7.966;2023-03-12T01:39:34;10.90;;;4.70;;
6105;SDS011;3083;51.508;7.966;2023-03-12T01:42:01;10.83;;;4.97;;
6105;SDS011;3083;51.508;7.966;2023-03-12T01:44:29;11.17;;;4.90;;
6105;SDS011;3083;51.508;7.966;2023-03-12T01:46:56;10.80;;;4.90;;
6105;SDS011;3083;51.508;7.966;2023-03-12T01:49:24;16.03;;;5.60;;
6105;SDS011;3083;51.508;7.966;2023-03-12T01:51:55;7.77;;;4.40;;
6105;SDS011;3083;51.508;7.966;2023-03-12T01:54:26;6.63;;;4.10;;
6105;SDS011;3083;51.508;7.966;2023-03-12T01:56:57;8.93;;;4.00;;
6105;SDS011;3083;51.508;7.966;2023-03-12T01:59:26;6.27;;;3.60;;
6105;SDS011;3083;51.508;7.966;2023-03-12T02:01:56;6.67;;;3.93;;
6105;SDS011;3083;51.508;7.966;2023-03-12T02:04:25;8.07;;;3.70;;
6105;SDS011;3083;51.508;7.966;2023-03-12T02:06:56;6.57;;;3.40;;
6105;SDS011;3083;51.508;7.966;2023-03-12T02:09:27;10.20;;;3.80;;
6105;SDS011;3083;51.508;7.966;2023-03-12T02:11:55;10.73;;;3.77;;
6105;SDS011;3083;51.508;7.966;2023-03-12T02:14:22;7.70;;;3.90;;
6105;SDS011;3083;51.508;7.966;2023-03-12T02:16:49;7.03;;;3.93;;
6105;SDS011;3083;51.508;7.966;2023-03-12T02:19:18;6.43;;;3.27;;
6105;SDS011;3083;51.508;7.966;2023-03-12T02:21:54;9.50;;;3.83;;
6105;SDS011;3083;51.508;7.966;2023-03-12T02:24:24;9.47;;;4.30;;
6105;SDS011;3083;51.508;7.966;2023-03-12T02:26:57;7.73;;;3.47;;
6105;SDS011;3083;51.508;7.966;2023-03-12T02:29:25;8.87;;;3.30;;
6105;SDS011;3083;51.508;7.966;2023-03-12T02:31:56;11.50;;;3.70;;
6105;SDS011;3083;51.508;7.966;2023-03-12T02:34:25;7.60;;;3.50;;
6105;SDS011;3083;51.508;7.966;2023-03-12T02:36:52;5.17;;;3.10;;
6105;SDS011;3083;51.508;7.966;2023-03-12T02:39:19;4.83;;;2.93;;
6105;SDS011;3083;51.508;7.966;2023-03-12T02:41:47;7.73;;;3.77;;
6105;SDS011;3083;51.508;7.966;2023-03-12T02:44:19;6.20;;;3.10;;
6105;SDS011;3083;51.508;7.966;2023-03-12T02:46:48;8.83;;;3.53;;
6105;SDS011;3083;51.508;7.966;2023-03-12T02:49:17;11.37;;;3.17;;
6105;SDS011;3083;51.508;7.966;2023-03-12T02:51:45;6.50;;;3.37;;
6105;SDS011;3083;51.508;7.966;2023-03-12T02:54:13;11.20;;;4.27;;
6105;SDS011;3083;51.508;7.966;2023-03-12T02:56:41;6.10;;;3.70;;
6105;SDS011;3083;51.508;7.966;2023-03-12T02:59:08;6.47;;;3.37;;
6105;SDS011;3083;51.508;7.966;2023-03-12T03:01:39;6.93;;;3.60;;
6105;SDS011;3083;51.508;7.966;2023-03-12T03:04:07;17.93;;;4.37;;
6105;SDS011;3083;51.508;7.966;2023-03-12T03:06:35;15.23;;;3.60;;
6105;SDS011;3083;51.508;7.966;2023-03-12T03:09:04;5.50;;;2.60;;
6105;SDS011;3083;51.508;7.966;2023-03-12T03:11:32;5.80;;;2.80;;
6105;SDS011;3083;51.508;7.966;2023-03-12T03:13:59;7.43;;;3.13;;
6105;SDS011;3083;51.508;7.966;2023-03-12T03:16:27;7.00;;;3.03;;
6105;SDS011;3083;51.508;7.966;2023-03-12T03:18:56;5.40;;;2.60;;
6105;SDS011;3083;51.508;7.966;2023-03-12T03:21:23;5.87;;;3.20;;
6105;SDS011;3083;51.508;7.966;2023-03-12T03:23:50;7.10;;;3.20;;
6105;SDS011;3083;51.508;7.966;2023-03-12T03:26:17;5.10;;;2.80;;
6105;SDS011;3083;51.508;7.966;2023-03-12T03:28:46;6.43;;;3.00;;
6105;SDS011;3083;51.508;7.966;2023-03-12T03:31:13;4.70;;;2.60;;
6105;SDS011;3083;51.508;7.966;2023-03-12T03:33:40;7.37;;;2.80;;
6105;SDS011;3083;51.508;7.966;2023-03-12T03:36:09;7.87;;;3.00;;
6105;SDS011;3083;51.508;7.966;2023-03-12T03:38:43;7.50;;;3.27;;
6105;SDS011;3083;51.508;7.966;2023-03-12T03:41:13;5.57;;;3.00;;
6105;SDS011;3083;51.508;7.966;2023-03-12T03:43:40;6.90;;;2.90;;
6105;SDS011;3083;51.508;7.966;2023-03-12T03:46:09;6.10;;;2.43;;
6105;SDS011;3083;51.508;7.966;2023-03-12T03:48:37;5.63;;;2.33;;
6105;SDS011;3083;51.508;7.966;2023-03-12T03:51:05;3.87;;;2.20;;
6105;SDS011;3083;51.508;7.966;2023-03-12T03:53:33;6.10;;;2.17;;
6105;SDS011;3083;51.508;7.966;2023-03-12T03:56:03;5.10;;;2.87;;
6105;SDS011;3083;51.508;7.966;2023-03-12T03:58:31;4.80;;;2.47;;
6105;SDS011;3083;51.508;7.966;2023-03-12T04:00:58;4.40;;;2.27;;
6105;SDS011;3083;51.508;7.966;2023-03-12T04:03:25;8.50;;;2.40;;
6105;SDS011;3083;51.508;7.966;2023-03-12T04:05:53;7.37;;;2.37;;
6105;SDS011;3083;51.508;7.966;2023-03-12T04:08:20;6.53;;;2.63;;
6105;SDS011;3083;51.508;7.966;2023-03-12T04:10:48;5.37;;;2.27;;
6105;SDS011;3083;51.508;7.966;2023-03-12T04:13:16;4.40;;;2.53;;
6105;SDS011;3083;51.508;7.966;2023-03-12T04:15:46;6.77;;;2.43;;
6105;SDS011;3083;51.508;7.966;2023-03-12T04:18:14;3.60;;;2.00;;
6105;SDS011;3083;51.508;7.966;2023-03-12T04:20:41;7.63;;;2.77;;
6105;SDS011;3083;51.508;7.966;2023-03-12T04:23:08;5.53;;;2.23;;
6105;SDS011;3083;51.508;7.966;2023-03-12T04:25:35;5.83;;;2.30;;
6105;SDS011;3083;51.508;7.966;2023-03-12T04:28:04;8.30;;;2.40;;
6105;SDS011;3083;51.508;7.966;2023-03-12T04:30:32;5.40;;;2.30;;
6105;SDS011;3083;51.508;7.966;2023-03-12T04:32:58;6.47;;;3.27;;
6105;SDS011;3083;51.508;7.966;2023-03-12T04:35:25;5.33;;;2.63;;
6105;SDS011;3083;51.508;7.966;2023-03-12T04:37:52;3.80;;;2.00;;
6105;SDS011;3083;51.508;7.966;2023-03-12T04:40:19;4.90;;;2.33;;
6105;SDS011;3083;51.508;7.966;2023-03-12T04:42:47;4.13;;;2.30;;
6105;SDS011;3083;51.508;7.966;2023-03-12T04:45:15;6.13;;;2.20;;
6105;SDS011;3083;51.508;7.966;2023-03-12T04:47:42;6.30;;;2.50;;
6105;SDS011;3083;51.508;7.966;2023-03-12T04:50:10;9.27;;;2.30;;
6105;SDS011;3083;51.508;7.966;2023-03-12T04:52:38;7.10;;;2.50;;
6105;SDS011;3083;51.508;7.966;2023-03-12T04:55:05;5.30;;;2.50;;
6105;SDS011;3083;51.508;7.966;2023-03-12T04:57:33;6.20;;;2.53;;
6105;SDS011;3083;51.508;7.966;2023-03-12T05:00:00;5.20;;;2.53;;
6105;SDS011;3083;51.508;7.966;2023-03-12T05:02:30;5.90;;;2.13;;
6105;SDS011;3083;51.508;7.966;2023-03-12T05:04:57;4.20;;;2.20;;
6105;SDS011;3083;51.508;7.966;2023-03-12T05:07:24;4.10;;;1.93;;
6105;SDS011;3083;51.508;7.966;2023-03-12T05:09:51;8.90;;;2.27;;
6105;SDS011;3083;51.508;7.966;2023-03-12T05:12:18;3.90;;;1.90;;
6105;SDS011;3083;51.508;7.966;2023-03-12T05:14:45;6.87;;;2.10;;
6105;SDS011;3083;51.508;7.966;2023-03-12T05:17:12;4.37;;;2.07;;
6105;SDS011;3083;51.508;7.966;2023-03-12T05:19:40;7.97;;;2.57;;
6105;SDS011;3083;51.508;7.966;2023-03-12T05:22:07;3.80;;;2.03;;
6105;SDS011;3083;51.508;7.966;2023-03-12T05:24:34;5.50;;;2.20;;
6105;SDS011;3083;51.508;7.966;2023-03-12T05:27:01;6.03;;;2.00;;
6105;SDS011;3083;51.508;7.966;2023-03-12T05:29:28;3.50;;;1.90;;
6105;SDS011;3083;51.508;7.966;2023-03-12T05:31:59;3.80;;;1.93;;
6105;SDS011;3083;51.508;7.966;2023-03-12T05:34:26;4.37;;;2.43;;
6105;SDS011;3083;51.508;7.966;2023-03-12T05:36:55;7.03;;;2.37;;
6105;SDS011;3083;51.508;7.966;2023-03-12T05:39:23;8.60;;;2.20;;
6105;SDS011;3083;51.508;7.966;2023-03-12T05:41:50;5.23;;;1.83;;
6105;SDS011;3083;51.508;7.966;2023-03-12T05:44:18;6.10;;;2.10;;
6105;SDS011;3083;51.508;7.966;2023-03-12T05:46:45;3.57;;;1.90;;
6105;SDS011;3083;51.508;7.966;2023-03-12T05:49:12;4.77;;;1.87;;
6105;SDS011;3083;51.508;7.966;2023-03-12T05:51:38;4.67;;;2.00;;
6105;SDS011;3083;51.508;7.966;2023-03-12T05:54:08;5.17;;;2.13;;
6105;SDS011;3083;51.508;7.966;2023-03-12T05:56:36;4.70;;;2.10;;
6105;SDS011;3083;51.508;7.966;2023-03-12T05:59:03;3.97;;;1.80;;
6105;SDS011;3083;51.508;7.966;2023-03-12T06:01:31;5.00;;;2.00;;
6105;SDS011;3083;51.508;7.966;2023-03-12T06:03:58;6.00;;;2.30;;
6105;SDS011;3083;51.508;7.966;2023-03-12T06:06:25;16.00;;;3.20;;
6105;SDS011;3083;51.508;7.966;2023-03-12T06:08:52;3.67;;;2.03;;
6105;SDS011;3083;51.508;7.966;2023-03-12T06:11:20;5.80;;;2.30;;
6105;SDS011;3083;51.508;7.966;2023-03-12T06:13:47;4.27;;;2.03;;
6105;SDS011;3083;51.508;7.966;2023-03-12T06:16:15;6.13;;;2.20;;
6105;SDS011;3083;51.508;7.966;2023-03-12T06:18:44;6.00;;;1.93;;
6105;SDS011;3083;51.508;7.966;2023-03-12T06:21:12;4.70;;;2.17;;
6105;SDS011;3083;51.508;7.966;2023-03-12T06:23:41;6.00;;;2.40;;
6105;SDS011;3083;51.508;7.966;2023-03-12T06:26:08;8.10;;;2.60;;
6105;SDS011;3083;51.508;7.966;2023-03-12T06:28:37;3.60;;;1.93;;
6105;SDS011;3083;51.508;7.966;2023-03-12T06:31:04;4.70;;;1.80;;
6105;SDS011;3083;51.508;7.966;2023-03-12T06:33:32;6.50;;;2.03;;
6105;SDS011;3083;51.508;7.966;2023-03-12T06:36:00;6.80;;;2.43;;
6105;SDS011;3083;51.508;7.966;2023-03-12T06:38:28;4.33;;;1.90;;
6105;SDS011;3083;51.508;7.966;2023-03-12T06:40:56;5.37;;;2.10;;
6105;SDS011;3083;51.508;7.966;2023-03-12T06:43:25;5.97;;;2.00;;
6105;SDS011;3083;51.508;7.966;2023-03-12T06:45:55;6.73;;;2.43;;
6105;SDS011;3083;51.508;7.966;2023-03-12T06:48:23;7.00;;;2.30;;
6105;SDS011;3083;51.508;7.966;2023-03-12T06:50:51;7.03;;;1.93;;
6105;SDS011;3083;51.508;7.966;2023-03-12T06:53:18;6.50;;;1.80;;
6105;SDS011;3083;51.508;7.966;2023-03-12T06:55:45;4.83;;;1.80;;
6105;SDS011;3083;51.508;7.966;2023-03-12T06:58:14;6.27;;;2.33;;
6105;SDS011;3083;51.508;7.966;2023-03-12T07:00:41;5.30;;;2.10;;
6105;SDS011;3083;51.508;7.966;2023-03-12T07:03:09;4.13;;;1.93;;
6105;SDS011;3083;51.508;7.966;2023-03-12T07:05:36;4.77;;;2.30;;
6105;SDS011;3083;51.508;7.966;2023-03-12T07:08:03;5.70;;;2.30;;
6105;SDS011;3083;51.508;7.966;2023-03-12T07:10:30;9.77;;;2.27;;
6105;SDS011;3083;51.508;7.966;2023-03-12T07:12:57;4.43;;;2.33;;
6105;SDS011;3083;51.508;7.966;2023-03-12T07:15:24;8.80;;;2.77;;
6105;SDS011;3083;51.508;7.966;2023-03-12T07:17:51;10.97;;;3.30;;
6105;SDS011;3083;51.508;7.966;2023-03-12T07:20:20;10.17;;;2.67;;
6105;SDS011;3083;51.508;7.966;2023-03-12T07:22:46;9.63;;;3.27;;
6105;SDS011;3083;51.508;7.966;2023-03-12T07:25:14;6.13;;;2.73;;
6105;SDS011;3083;51.508;7.966;2023-03-12T07:27:41;5.13;;;2.93;;
6105;SDS011;3083;51.508;7.966;2023-03-12T07:30:08;9.53;;;2.93;;
6105;SDS011;3083;51.508;7.966;2023-03-12T07:32:36;4.33;;;2.03;;
6105;SDS011;3083;51.508;7.966;2023-03-12T07:35:03;5.07;;;2.50;;
6105;SDS011;3083;51.508;7.966;2023-03-12T07:37:32;8.10;;;2.90;;
6105;SDS011;3083;51.508;7.966;2023-03-12T07:39:59;8.63;;;2.77;;
6105;SDS011;3083;51.508;7.966;2023-03-12T07:42:26;5.20;;;2.63;;
6105;SDS011;3083;51.508;7.966;2023-03-12T07:44:53;5.43;;;2.33;;
6105;SDS011;3083;51.508;7.966;2023-03-12T07:47:20;7.30;;;3.10;;
6105;SDS011;3083;51.508;7.966;2023-03-12T07:49:47;8.57;;;3.20;;
6105;SDS011;3083;51.508;7.966;2023-03-12T07:52:14;7.23;;;3.60;;
6105;SDS011;3083;51.508;7.966;2023-03-12T07:54:43;8.30;;;3.23;;
6105;SDS011;3083;51.508;7.966;2023-03-12T07:57:10;10.47;;;3.37;;
6105;SDS011;3083;51.508;7.966;2023-03-12T07:59:38;7.40;;;3.33;;
6105;SDS011;3083;51.508;7.966;2023-03-12T08:02:05;7.30;;;3.67;;
6105;SDS011;3083;51.508;7.966;2023-03-12T08:04:34;10.17;;;3.23;;
6105;SDS011;3083;51.508;7.966;2023-03-12T08:07:02;7.73;;;3.17;;
6105;SDS011;3083;51.508;7.966;2023-03-12T08:09:29;6.83;;;2.70;;
6105;SDS011;3083;51.508;7.966;2023-03-12T08:11:58;8.57;;;3.13;;
6105;SDS011;3083;51.508;7.966;2023-03-12T08:14:25;7.23;;;3.77;;
6105;SDS011;3083;51.508;7.966;2023-03-12T08:16:55;12.60;;;4.20;;
6105;SDS011;3083;51.508;7.966;2023-03-12T08:19:22;10.33;;;3.27;;
6105;SDS011;3083;51.508;7.966;2023-03-12T08:21:49;15.43;;;4.70;;
6105;SDS011;3083;51.508;7.966;2023-03-12T08:24:17;7.30;;;3.90;;
6105;SDS011;3083;51.508;7.966;2023-03-12T08:26:44;10.03;;;4.30;;
6105;SDS011;3083;51.508;7.966;2023-03-12T08:29:12;9.67;;;5.07;;
6105;SDS011;3083;51.508;7.966;2023-03-12T08:31:39;10.23;;;5.83;;
6105;SDS011;3083;51.508;7.966;2023-03-12T08:34:06;6.67;;;4.47;;
6105;SDS011;3083;51.508;7.966;2023-03-12T08:36:33;9.20;;;5.03;;
6105;SDS011;3083;51.508;7.966;2023-03-12T08:39:01;7.50;;;4.10;;
6105;SDS011;3083;51.508;7.966;2023-03-12T08:41:28;9.60;;;4.53;;
6105;SDS011;3083;51.508;7.966;2023-03-12T08:43:55;10.33;;;4.27;;
6105;SDS011;3083;51.508;7.966;2023-03-12T08:46:23;7.30;;;3.90;;
6105;SDS011;3083;51.508;7.966;2023-03-12T08:48:50;6.70;;;3.83;;
6105;SDS011;3083;51.508;7.966;2023-03-12T08:51:17;9.43;;;3.77;;
6105;SDS011;3083;51.508;7.966;2023-03-12T08:53:44;6.80;;;3.97;;
6105;SDS011;3083;51.508;7.966;2023-03-12T08:56:11;6.83;;;4.03;;
6105;SDS011;3083;51.508;7.966;2023-03-12T08:58:38;7.83;;;4.27;;
6105;SDS011;3083;51.508;7.966;2023-03-12T09:01:07;7.27;;;4.13;;
6105;SDS011;3083;51.508;7.966;2023-03-12T09:03:36;7.90;;;4.23;;
6105;SDS011;3083;51.508;7.966;2023-03-12T09:06:05;7.93;;;4.27;;
6105;SDS011;3083;51.508;7.966;2023-03-12T09:08:37;8.77;;;4.70;;
6105;SDS011;3083;51.508;7.966;2023-03-12T09:11:04;9.43;;;5.00;;
6105;SDS011;3083;51.508;7.966;2023-03-12T09:13:31;12.13;;;5.60;;
6105;SDS011;3083;51.508;7.966;2023-03-12T09:15:59;9.43;;;5.70;;
6105;SDS011;3083;51.508;7.966;2023-03-12T09:18:26;8.60;;;4.97;;
6105;SDS011;3083;51.508;7.966;2023-03-12T09:20:55;7.17;;;4.10;;
6105;SDS011;3083;51.508;7.966;2023-03-12T09:23:23;10.93;;;5.17;;
6105;SDS011;3083;51.508;7.966;2023-03-12T09:25:50;8.50;;;3.97;;
6105;SDS011;3083;51.508;7.966;2023-03-12T09:28:17;9.17;;;5.10;;
6105;SDS011;3083;51.508;7.966;2023-03-12T09:30:45;9.93;;;4.33;;
6105;SDS011;3083;51.508;7.966;2023-03-12T09:33:12;7.97;;;4.07;;
6105;SDS011;3083;51.508;7.966;2023-03-12T09:35:40;7.70;;;4.20;;
6105;SDS011;3083;51.508;7.966;2023-03-12T09:38:08;8.90;;;4.27;;
6105;SDS011;3083;51.508;7.966;2023-03-12T09:40:38;7.13;;;3.90;;
6105;SDS011;3083;51.508;7.966;2023-03-12T09:43:12;9.07;;;4.40;;
6105;SDS011;3083;51.508;7.966;2023-03-12T09:45:47;5.93;;;3.57;;
6105;SDS011;3083;51.508;7.966;2023-03-12T09:48:16;7.53;;;4.17;;
6105;SDS011;3083;51.508;7.966;2023-03-12T09:50:46;9.33;;;4.03;;
6105;SDS011;3083;51.508;7.966;2023-03-12T09:53:18;7.20;;;4.30;;
6105;SDS011;3083;51.508;7.966;2023-03-12T09:55:52;8.90;;;5.17;;
6105;SDS011;3083;51.508;7.966;2023-03-12T09:58:23;10.13;;;5.30;;
6105;SDS011;3083;51.508;7.966;2023-03-12T10:00:52;12.60;;;6.03;;
6105;SDS011;3083;51.508;7.966;2023-03-12T10:03:28;9.20;;;5.17;;
6105;SDS011;3083;51.508;7.966;2023-03-12T10:06:12;7.67;;;4.30;;
6105;SDS011;3083;51.508;7.966;2023-03-12T10:08:46;8.17;;;4.00;;
6105;SDS011;3083;51.508;7.966;2023-03-12T10:11:25;7.00;;;3.73;;
6105;SDS011;3083;51.508;7.966;2023-03-12T10:16:49;8.20;;;4.30;;
6105;SDS011;3083;51.508;7.966;2023-03-12T10:19:26;7.10;;;3.77;;
6105;SDS011;3083;51.508;7.966;2023-03-12T10:22:14;7.73;;;3.97;;
6105;SDS011;3083;51.508;7.966;2023-03-12T10:24:58;8.87;;;4.43;;
6105;SDS011;3083;51.508;7.966;2023-03-12T10:27:33;7.80;;;4.43;;
6105;SDS011;3083;51.508;7.966;2023-03-12T10:30:02;18.07;;;8.67;;
6105;SDS011;3083;51.508;7.966;2023-03-12T10:32:39;7.90;;;4.30;;
6105;SDS011;3083;51.508;7.966;2023-03-12T10:35:12;9.33;;;5.40;;
6105;SDS011;3083;51.508;7.966;2023-03-12T10:37:42;8.00;;;4.70;;
6105;SDS011;3083;51.508;7.966;2023-03-12T10:40:14;10.50;;;5.63;;
6105;SDS011;3083;51.508;7.966;2023-03-12T10:42:42;12.23;;;6.10;;
6105;SDS011;3083;51.508;7.966;2023-03-12T10:45:15;9.23;;;4.07;;
6105;SDS011;3083;51.508;7.966;2023-03-12T10:47:49;14.67;;;5.80;;
6105;SDS011;3083;51.508;7.966;2023-03-12T10:50:22;9.70;;;4.93;;
6105;SDS011;3083;51.508;7.966;2023-03-12T10:52:50;7.20;;;3.60;;
6105;SDS011;3083;51.508;7.966;2023-03-12T10:55:22;6.37;;;3.50;;
6105;SDS011;3083;51.508;7.966;2023-03-12T10:57:51;8.87;;;4.70;;
6105;SDS011;3083;51.508;7.966;2023-03-12T11:00:19;7.87;;;4.50;;
6105;SDS011;3083;51.508;7.966;2023-03-12T11:02:56;7.90;;;4.20;;
6105;SDS011;3083;51.508;7.966;2023-03-12T11:05:28;10.10;;;5.43;;
6105;SDS011;3083;51.508;7.966;2023-03-12T11:07:56;7.07;;;3.60;;
6105;SDS011;3083;51.508;7.966;2023-03-12T11:10:36;7.07;;;3.70;;
6105;SDS011;3083;51.508;7.966;2023-03-12T11:13:21;6.20;;;3.50;;
6105;SDS011;3083;51.508;7.966;2023-03-12T11:15:50;6.50;;;3.63;;
6105;SDS011;3083;51.508;7.966;2023-03-12T11:18:21;7.57;;;3.97;;
6105;SDS011;3083;51.508;7.966;2023-03-12T11:20:54;6.80;;;3.43;;
6105;SDS011;3083;51.508;7.966;2023-03-12T11:23:23;6.57;;;3.20;;
6105;SDS011;3083;51.508;7.966;2023-03-12T11:25:55;8.10;;;3.73;;
6105;SDS011;3083;51.508;7.966;2023-03-12T11:28:26;7.30;;;3.53;;
6105;SDS011;3083;51.508;7.966;2023-03-12T11:30:59;4.60;;;2.67;;
6105;SDS011;3083;51.508;7.966;2023-03-12T11:33:27;4.37;;;2.30;;
6105;SDS011;3083;51.508;7.966;2023-03-12T11:35:57;7.00;;;2.80;;
6105;SDS011;3083;51.508;7.966;2023-03-12T11:38:34;5.17;;;2.87;;
6105;SDS011;3083;51.508;7.966;2023-03-12T11:41:17;6.17;;;2.83;;
6105;SDS011;3083;51.508;7.966;2023-03-12T11:44:04;6.27;;;2.80;;
6105;SDS011;3083;51.508;7.966;2023-03-12T11:46:45;5.03;;;2.63;;
6105;SDS011;3083;51.508;7.966;2023-03-12T11:49:25;6.37;;;2.93;;
6105;SDS011;3083;51.508;7.966;2023-03-12T11:52:07;7.13;;;2.87;;
6105;SDS011;3083;51.508;7.966;2023-03-12T11:57:44;5.40;;;2.77;;
6105;SDS011;3083;51.508;7.966;2023-03-12T12:00:30;6.50;;;3.10;;
6105;SDS011;3083;51.508;7.966;2023-03-12T12:03:17;3.90;;;2.10;;
6105;SDS011;3083;51.508;7.966;2023-03-12T12:06:02;5.00;;;2.40;;
6105;SDS011;3083;51.508;7.966;2023-03-12T12:08:41;4.77;;;2.40;;
6105;SDS011;3083;51.508;7.966;2023-03-12T12:11:21;3.80;;;2.10;;
6105;SDS011;3083;51.508;7.966;2023-03-12T12:13:58;4.63;;;2.10;;
6105;SDS011;3083;51.508;7.966;2023-03-12T12:16:45;4.30;;;2.60;;
6105;SDS011;3083;51.508;7.966;2023-03-12T12:19:25;7.43;;;2.53;;
6105;SDS011;3083;51.508;7.966;2023-03-12T12:22:05;5.83;;;2.53;;
6105;SDS011;3083;51.508;7.966;2023-03-12T12:24:57;4.80;;;2.70;;
6105;SDS011;3083;51.508;7.966;2023-03-12T12:27:47;5.03;;;2.67;;
6105;SDS011;3083;51.508;7.966;2023-03-12T12:30:24;4.20;;;2.30;;
6105;SDS011;3083;51.508;7.966;2023-03-12T12:32:58;5.73;;;2.90;;
6105;SDS011;3083;51.508;7.966;2023-03-12T12:35:38;9.40;;;3.70;;
6105;SDS011;3083;51.508;7.966;2023-03-12T12:38:08;8.43;;;3.40;;
6105;SDS011;3083;51.508;7.966;2023-03-12T12:40:40;7.27;;;2.97;;
6105;SDS011;3083;51.508;7.966;2023-03-12T12:43:14;5.50;;;2.93;;
6105;SDS011;3083;51.508;7.966;2023-03-12T12:45:54;4.80;;;2.73;;
6105;SDS011;3083;51.508;7.966;2023-03-12T12:48:26;5.13;;;2.90;;
6105;SDS011;3083;51.508;7.966;2023-03-12T12:50:57;6.13;;;3.00;;
6105;SDS011;3083;51.508;7.966;2023-03-12T12:53:27;4.37;;;2.43;;
6105;SDS011;3083;51.508;7.966;2023-03-12T12:56:02;5.37;;;2.90;;
6105;SDS011;3083;51.508;7.966;2023-03-12T12:58:44;4.63;;;2.83;;
6105;SDS011;3083;51.508;7.966;2023-03-12T13:01:35;6.93;;;2.60;;
6105;SDS011;3083;51.508;7.966;2023-03-12T13:04:03;4.63;;;2.70;;
6105;SDS011;3083;51.508;7.966;2023-03-12T13:09:20;5.00;;;2.63;;
6105;SDS011;3083;51.508;7.966;2023-03-12T13:11:48;4.97;;;2.80;;
6105;SDS011;3083;51.508;7.966;2023-03-12T13:14:20;5.93;;;2.50;;
6105;SDS011;3083;51.508;7.966;2023-03-12T13:17:07;5.97;;;2.80;;
6105;SDS011;3083;51.508;7.966;2023-03-12T13:19:46;6.13;;;2.90;;
6105;SDS011;3083;51.508;7.966;2023-03-12T13:22:16;9.10;;;4.43;;
6105;SDS011;3083;51.508;7.966;2023-03-12T13:24:53;6.37;;;3.77;;
6105;SDS011;3083;51.508;7.966;2023-03-12T13:27:28;7.63;;;3.70;;
6105;SDS011;3083;51.508;7.966;2023-03-12T13:29:56;10.33;;;4.90;;
6105;SDS011;3083;51.508;7.966;2023-03-12T13:32:36;7.60;;;3.70;;
6105;SDS011;3083;51.508;7.966;2023-03-12T13:35:28;7.97;;;4.37;;
6105;SDS011;3083;51.508;7.966;2023-03-12T13:38:02;10.73;;;4.50;;
6105;SDS011;3083;51.508;7.966;2023-03-12T13:40:38;8.00;;;4.20;;
6105;SDS011;3083;51.508;7.966;2023-03-12T13:43:46;10.50;;;4.47;;
6105;SDS011;3083;51.508;7.966;2023-03-12T13:46:31;11.77;;;5.50;;
6105;SDS011;3083;51.508;7.966;2023-03-12T13:49:09;12.60;;;6.00;;
6105;SDS011;3083;51.508;7.966;2023-03-12T13:54:33;6.70;;;3.53;;
6105;SDS011;3083;51.508;7.966;2023-03-12T13:57:09;6.40;;;3.50;;
6105;SDS011;3083;51.508;7.966;2023-03-12T13:59:41;7.30;;;3.50;;
6105;SDS011;3083;51.508;7.966;2023-03-12T14:02:12;5.27;;;2.70;;
6105;SDS011;3083;51.508;7.966;2023-03-12T14:04:48;6.33;;;3.53;;
6105;SDS011;3083;51.508;7.966;2023-03-12T14:07:22;8.33;;;3.70;;
6105;SDS011;3083;51.508;7.966;2023-03-12T14:10:11;7.17;;;3.67;;
6105;SDS011;3083;51.508;7.966;2023-03-12T14:12:51;9.87;;;4.00;;
6105;SDS011;3083;51.508;7.966;2023-03-12T14:15:27;13.57;;;4.77;;
6105;SDS011;3083;51.508;7.966;2023-03-12T14:18:00;14.00;;;6.13;;
6105;SDS011;3083;51.508;7.966;2023-03-12T14:20:37;9.70;;;4.73;;
6105;SDS011;3083;51.508;7.966;2023-03-12T14:23:06;14.63;;;5.47;;
6105;SDS011;3083;51.508;7.966;2023-03-12T14:25:38;10.73;;;4.73;;
6105;SDS011;3083;51.508;7.966;2023-03-12T14:28:09;13.27;;;5.70;;
6105;SDS011;3083;51.508;7.966;2023-03-12T14:30:40;15.83;;;6.50;;
6105;SDS011;3083;51.508;7.966;2023-03-12T14:33:13;18.90;;;6.30;;
6105;SDS011;3083;51.508;7.966;2023-03-12T14:35:44;13.23;;;5.60;;
6105;SDS011;3083;51.508;7.966;2023-03-12T14:38:16;18.33;;;7.57;;
6105;SDS011;3083;51.508;7.966;2023-03-12T14:40:48;18.83;;;7.37;;
6105;SDS011;3083;51.508;7.966;2023-03-12T14:43:21;16.10;;;6.70;;
6105;SDS011;3083;51.508;7.966;2023-03-12T14:45:50;20.03;;;8.10;;
6105;SDS011;3083;51.508;7.966;2023-03-12T14:48:20;12.10;;;5.77;;
6105;SDS011;3083;51.508;7.966;2023-03-12T14:50:49;16.60;;;6.03;;
6105;SDS011;3083;51.508;7.966;2023-03-12T14:53:19;19.00;;;7.17;;
6105;SDS011;3083;51.508;7.966;2023-03-12T14:55:59;14.53;;;6.30;;
6105;SDS011;3083;51.508;7.966;2023-03-12T14:58:27;19.57;;;6.90;;
6105;SDS011;3083;51.508;7.966;2023-03-12T15:00:55;17.00;;;6.83;;
6105;SDS011;3083;51.508;7.966;2023-03-12T15:03:23;23.00;;;7.70;;
6105;SDS011;3083;51.508;7.966;2023-03-12T15:05:53;14.43;;;6.30;;
6105;SDS011;3083;51.508;7.966;2023-03-12T15:08:21;19.13;;;6.73;;
6105;SDS011;3083;51.508;7.966;2023-03-12T15:10:49;19.83;;;6.67;;
6105;SDS011;3083;51.508;7.966;2023-03-12T15:13:18;18.77;;;6.27;;
6105;SDS011;3083;51.508;7.966;2023-03-12T15:15:47;20.07;;;6.87;;
6105;SDS011;3083;51.508;7.966;2023-03-12T15:18:17;29.50;;;8.00;;
6105;SDS011;3083;51.508;7.966;2023-03-12T15:20:48;18.03;;;7.17;;
6105;SDS011;3083;51.508;7.966;2023-03-12T15:23:18;23.60;;;7.83;;
6105;SDS011;3083;51.508;7.966;2023-03-12T15:25:47;20.40;;;7.30;;
6105;SDS011;3083;51.508;7.966;2023-03-12T15:28:33;16.00;;;7.23;;
6105;SDS011;3083;51.508;7.966;2023-03-12T15:31:03;20.50;;;7.10;;
6105;SDS011;3083;51.508;7.966;2023-03-12T15:33:32;19.10;;;6.40;;
6105;SDS011;3083;51.508;7.966;2023-03-12T15:35:59;20.30;;;7.97;;
6105;SDS011;3083;51.508;7.966;2023-03-12T15:38:32;23.70;;;8.00;;
6105;SDS011;3083;51.508;7.966;2023-03-12T15:41:05;19.07;;;7.10;;
6105;SDS011;3083;51.508;7.966;2023-03-12T15:43:33;21.50;;;7.20;;